createdAt,value
2017-12-25T00:01:06.447Z,1.10
2017-12-25T00:03:34.674Z,0.93
2017-12-25T00:06:02.147Z,1.23
2017-12-25T00:08:29.603Z,1.07
2017-12-25T00:10:57.091Z,1.27
2017-12-25T00:13:25.327Z,1.30
2017-12-25T00:15:52.811Z,1.10
2017-12-25T00:18:20.300Z,1.30
2017-12-25T00:20:48.537Z,1.30
2017-12-25T00:23:16.966Z,1.20
2017-12-25T00:25:45.026Z,1.40
2017-12-25T00:28:13.306Z,1.80
2017-12-25T00:30:41.575Z,4.77
2017-12-25T00:33:09.865Z,1.83
2017-12-25T00:35:37.350Z,1.70
2017-12-25T00:38:04.802Z,1.70
2017-12-25T00:40:32.374Z,1.70
2017-12-25T00:42:59.835Z,2.40
2017-12-25T00:45:27.316Z,1.50
2017-12-25T00:47:55.097Z,1.40
2017-12-25T00:50:22.591Z,1.57
2017-12-25T00:52:50.053Z,1.47
2017-12-25T00:55:17.521Z,1.50
2017-12-25T00:57:44.982Z,1.60
2017-12-25T01:00:12.612Z,1.30
2017-12-25T01:02:40.114Z,1.30
2017-12-25T01:05:07.577Z,1.10
2017-12-25T01:07:35.062Z,1.67
2017-12-25T01:10:02.526Z,1.20
2017-12-25T01:12:30.005Z,1.30
2017-12-25T01:14:58.266Z,1.20
2017-12-25T01:17:25.762Z,1.30
2017-12-25T01:19:53.219Z,1.50
2017-12-25T01:22:20.765Z,1.43
2017-12-25T01:24:48.223Z,2.10
2017-12-25T01:27:15.703Z,1.30
2017-12-25T01:29:43.170Z,1.70
2017-12-25T01:32:10.655Z,2.73
2017-12-25T01:34:38.117Z,7.87
2017-12-25T01:37:05.599Z,1.40
2017-12-25T01:39:33.836Z,1.23
2017-12-25T01:42:01.306Z,1.30
2017-12-25T01:44:28.782Z,2.70
2017-12-25T01:47:06.218Z,1.70
2017-12-25T01:49:33.698Z,1.40
2017-12-25T01:52:01.198Z,1.30
2017-12-25T01:54:44.403Z,1.13
2017-12-25T01:57:27.434Z,1.33
2017-12-25T02:02:52.822Z,1.50
2017-12-25T02:08:26.046Z,1.20
2017-12-25T02:10:53.539Z,1.40
2017-12-25T02:13:21.783Z,1.83
2017-12-25T02:15:49.322Z,1.80
2017-12-25T02:18:16.762Z,4.10
2017-12-25T02:20:44.248Z,1.53
2017-12-25T02:23:11.730Z,1.53
2017-12-25T02:25:39.259Z,1.70
2017-12-25T02:28:06.777Z,1.80
2017-12-25T02:30:35.057Z,1.40
2017-12-25T02:33:03.291Z,1.67
2017-12-25T02:35:30.826Z,2.87
2017-12-25T02:37:58.902Z,1.90
2017-12-25T02:40:26.394Z,1.87
2017-12-25T02:42:53.873Z,1.67
2017-12-25T02:45:21.355Z,2.03
2017-12-25T02:47:48.838Z,2.13
2017-12-25T02:50:16.327Z,4.10
2017-12-25T02:52:43.814Z,2.50
2017-12-25T02:55:12.090Z,1.60
2017-12-25T02:57:40.470Z,3.30
2017-12-25T03:00:08.760Z,4.70
2017-12-25T03:02:36.262Z,2.80
2017-12-25T03:05:03.735Z,4.07
2017-12-25T03:07:31.469Z,3.90
2017-12-25T03:09:58.934Z,2.50
2017-12-25T03:12:26.411Z,2.90
2017-12-25T03:14:53.892Z,2.93
2017-12-25T03:17:21.374Z,5.33
2017-12-25T03:19:48.847Z,3.43
2017-12-25T03:22:16.338Z,3.17
2017-12-25T03:24:43.843Z,3.60
2017-12-25T03:27:12.088Z,4.53
2017-12-25T03:29:39.594Z,4.53
2017-12-25T03:32:07.064Z,3.80
2017-12-25T03:34:34.568Z,3.90
2017-12-25T03:37:02.048Z,3.70
2017-12-25T03:39:30.304Z,3.33
2017-12-25T03:41:58.681Z,3.30
2017-12-25T03:44:26.151Z,3.60
2017-12-25T03:46:53.645Z,3.00
2017-12-25T03:49:21.134Z,3.13
2017-12-25T03:51:48.622Z,2.57
2017-12-25T03:54:16.100Z,3.37
2017-12-25T03:56:44.333Z,2.83
2017-12-25T03:59:11.820Z,2.43
2017-12-25T04:01:39.299Z,2.33
2017-12-25T04:04:07.558Z,2.93
2017-12-25T04:06:36.531Z,3.20
2017-12-25T04:09:04.011Z,2.70
2017-12-25T04:11:31.492Z,3.17
2017-12-25T04:13:58.979Z,3.30
2017-12-25T04:16:26.442Z,2.20
2017-12-25T04:18:53.932Z,2.60
2017-12-25T04:21:21.416Z,2.40
2017-12-25T04:23:49.667Z,2.77
2017-12-25T04:26:17.134Z,2.30
2017-12-25T04:28:45.438Z,2.60
2017-12-25T04:31:12.934Z,2.37
2017-12-25T04:33:40.487Z,3.30
2017-12-25T04:36:07.941Z,2.73
2017-12-25T04:38:35.428Z,2.37
2017-12-25T04:41:02.914Z,2.97
2017-12-25T04:43:31.238Z,3.00
2017-12-25T04:45:58.723Z,3.00
2017-12-25T04:48:26.197Z,3.10
2017-12-25T04:50:53.693Z,3.00
2017-12-25T04:53:21.179Z,3.37
2017-12-25T04:55:48.658Z,3.13
2017-12-25T04:58:16.143Z,2.67
2017-12-25T05:00:43.630Z,3.30
2017-12-25T05:03:11.094Z,3.77
2017-12-25T05:05:38.598Z,3.77
2017-12-25T05:08:06.067Z,3.40
2017-12-25T05:10:33.551Z,2.73
2017-12-25T05:13:01.950Z,3.80
2017-12-25T05:15:29.413Z,3.50
2017-12-25T05:17:57.258Z,3.60
2017-12-25T05:20:24.727Z,3.50
2017-12-25T05:22:52.251Z,4.80
2017-12-25T05:25:19.726Z,4.10
2017-12-25T05:27:47.970Z,3.50
2017-12-25T05:30:15.447Z,3.40
2017-12-25T05:32:42.929Z,7.70
2017-12-25T05:35:10.462Z,4.30
2017-12-25T05:37:37.947Z,3.30
2017-12-25T05:40:06.217Z,3.50
2017-12-25T05:42:34.458Z,3.90
2017-12-25T05:45:01.974Z,4.70
2017-12-25T05:47:29.446Z,5.00
2017-12-25T05:49:56.933Z,6.13
2017-12-25T05:52:24.408Z,4.10
2017-12-25T05:54:52.659Z,3.70
2017-12-25T05:57:20.135Z,5.07
2017-12-25T05:59:47.610Z,4.37
2017-12-25T06:02:15.873Z,3.90
2017-12-25T06:04:44.861Z,3.50
2017-12-25T06:07:12.335Z,3.87
2017-12-25T06:09:40.578Z,4.30
2017-12-25T06:12:08.056Z,3.47
2017-12-25T06:14:35.522Z,3.97
2017-12-25T06:17:03.785Z,3.90
2017-12-25T06:19:31.264Z,3.20
2017-12-25T06:21:58.753Z,3.70
2017-12-25T06:24:26.260Z,2.90
2017-12-25T06:26:53.736Z,3.70
2017-12-25T06:29:21.493Z,3.20
2017-12-25T06:31:48.955Z,3.40
2017-12-25T06:34:16.434Z,3.90
2017-12-25T06:36:44.730Z,4.30
2017-12-25T06:39:12.956Z,3.50
2017-12-25T06:41:40.463Z,4.13
2017-12-25T06:44:08.698Z,3.83
2017-12-25T06:46:36.189Z,3.73
2017-12-25T06:49:04.422Z,4.30
2017-12-25T06:51:31.939Z,4.07
2017-12-25T06:53:59.423Z,3.50
2017-12-25T06:56:26.887Z,3.40
2017-12-25T06:58:54.364Z,3.87
2017-12-25T07:01:21.831Z,3.90
2017-12-25T07:03:49.322Z,4.60
2017-12-25T07:06:17.596Z,3.37
2017-12-25T07:08:45.849Z,3.67
2017-12-25T07:11:13.329Z,3.50
2017-12-25T07:13:41.819Z,3.33
2017-12-25T07:16:10.073Z,2.83
2017-12-25T07:18:37.563Z,3.30
2017-12-25T07:21:05.041Z,2.90
2017-12-25T07:23:32.539Z,2.73
2017-12-25T07:26:00.041Z,2.80
2017-12-25T07:28:27.576Z,2.50
2017-12-25T07:30:55.826Z,4.73
2017-12-25T07:33:23.289Z,2.40
2017-12-25T07:35:51.528Z,2.37
2017-12-25T07:38:19.008Z,2.63
2017-12-25T07:40:46.514Z,3.07
2017-12-25T07:43:14.755Z,3.07
2017-12-25T07:45:42.263Z,2.73
2017-12-25T07:48:09.739Z,2.40
2017-12-25T07:50:37.224Z,1.87
2017-12-25T07:53:04.692Z,1.97
2017-12-25T07:55:32.928Z,3.80
2017-12-25T07:58:00.417Z,1.67
2017-12-25T08:00:27.882Z,3.03
2017-12-25T08:02:55.346Z,2.33
2017-12-25T08:05:22.869Z,2.80
2017-12-25T08:07:50.347Z,2.57
2017-12-25T08:10:18.046Z,2.47
2017-12-25T08:12:46.306Z,2.50
2017-12-25T08:15:13.799Z,2.30
2017-12-25T08:17:41.317Z,2.97
2017-12-25T08:20:08.833Z,2.70
2017-12-25T08:22:36.323Z,2.73
2017-12-25T08:25:04.738Z,2.50
2017-12-25T08:27:32.213Z,2.57
2017-12-25T08:30:00.499Z,2.37
2017-12-25T08:32:27.941Z,2.93
2017-12-25T08:34:56.211Z,2.73
2017-12-25T08:37:23.697Z,2.50
2017-12-25T08:39:51.925Z,2.60
2017-12-25T08:42:20.179Z,2.70
2017-12-25T08:44:47.666Z,2.03
2017-12-25T08:47:15.137Z,3.23
2017-12-25T08:49:43.370Z,2.27
2017-12-25T08:52:10.866Z,2.80
2017-12-25T08:54:39.151Z,2.47
2017-12-25T08:57:07.674Z,2.23
2017-12-25T08:59:35.261Z,2.07
2017-12-25T09:02:02.714Z,2.50
2017-12-25T09:04:30.204Z,2.20
2017-12-25T09:06:57.722Z,1.70
2017-12-25T09:09:25.201Z,2.23
2017-12-25T09:11:52.694Z,2.07
2017-12-25T09:14:21.170Z,3.03
2017-12-25T09:16:50.741Z,2.93
2017-12-25T09:19:19.364Z,2.83
2017-12-25T09:21:47.128Z,15.27
2017-12-25T09:24:15.367Z,2.63
2017-12-25T09:26:44.607Z,12.93
2017-12-25T09:29:13.209Z,2.67
2017-12-25T09:31:40.882Z,3.30
2017-12-25T09:34:10.280Z,2.43
2017-12-25T09:36:37.967Z,1.80
2017-12-25T09:39:06.475Z,2.67
2017-12-25T09:41:34.153Z,2.40
2017-12-25T09:44:02.428Z,2.30
2017-12-25T09:46:29.984Z,3.50
2017-12-25T09:48:57.481Z,2.50
2017-12-25T09:51:25.851Z,2.90
2017-12-25T09:53:54.151Z,5.20
2017-12-25T09:56:21.655Z,10.80
2017-12-25T09:58:49.206Z,9.67
2017-12-25T10:01:16.789Z,3.47
2017-12-25T10:03:44.398Z,2.50
2017-12-25T10:06:13.024Z,2.83
2017-12-25T10:08:40.966Z,5.07
2017-12-25T10:11:08.737Z,6.23
2017-12-25T10:13:36.401Z,1.97
2017-12-25T10:16:03.979Z,2.10
2017-12-25T10:18:31.573Z,2.17
2017-12-25T10:20:59.807Z,2.47
2017-12-25T10:23:27.481Z,2.07
2017-12-25T10:25:55.891Z,1.90
2017-12-25T10:28:23.385Z,2.47
2017-12-25T10:30:51.001Z,1.80
2017-12-25T10:33:18.606Z,1.57
2017-12-25T10:35:47.878Z,1.60
2017-12-25T10:38:16.114Z,1.50
2017-12-25T10:40:43.614Z,2.00
2017-12-25T10:43:11.891Z,1.57
2017-12-25T10:45:40.219Z,2.17
2017-12-25T10:48:07.910Z,1.63
2017-12-25T10:50:35.590Z,1.80
2017-12-25T10:53:03.628Z,2.07
2017-12-25T10:55:33.273Z,1.97
2017-12-25T10:58:05.150Z,1.67
2017-12-25T11:00:48.105Z,1.10
2017-12-25T11:05:57.258Z,1.60
2017-12-25T11:08:25.523Z,1.97
2017-12-25T11:10:53.011Z,2.30
2017-12-25T11:13:21.970Z,1.80
2017-12-25T11:15:54.075Z,1.90
2017-12-25T11:18:27.400Z,1.50
2017-12-25T11:21:03.400Z,1.63
2017-12-25T11:23:33.337Z,1.90
2017-12-25T11:26:06.421Z,1.70
2017-12-25T11:28:35.546Z,1.50
2017-12-25T11:31:07.359Z,1.50
2017-12-25T11:33:48.330Z,1.70
2017-12-25T11:36:19.996Z,4.83
2017-12-25T11:38:52.670Z,1.93
2017-12-25T11:41:23.528Z,1.40
2017-12-25T11:43:55.184Z,1.23
2017-12-25T11:46:27.321Z,1.50
2017-12-25T11:49:01.077Z,1.60
2017-12-25T11:51:33.799Z,1.30
2017-12-25T11:54:05.169Z,3.17
2017-12-25T11:56:35.394Z,1.83
2017-12-25T11:59:13.078Z,1.23
2017-12-25T12:01:42.460Z,1.43
2017-12-25T12:04:22.501Z,1.60
2017-12-25T12:06:51.672Z,0.90
2017-12-25T12:09:19.731Z,1.20
2017-12-25T12:12:07.482Z,1.37
2017-12-25T12:14:36.190Z,2.33
2017-12-25T12:17:09.343Z,1.80
2017-12-25T12:19:38.563Z,2.40
2017-12-25T12:22:06.091Z,1.60
2017-12-25T12:24:33.652Z,1.30
2017-12-25T12:27:01.264Z,1.10
2017-12-25T12:29:30.968Z,1.40
2017-12-25T12:32:07.784Z,1.33
2017-12-25T12:34:35.374Z,1.40
2017-12-25T12:37:03.570Z,1.67
2017-12-25T12:39:31.035Z,1.33
2017-12-25T12:41:58.844Z,1.43
2017-12-25T12:44:27.577Z,1.83
2017-12-25T12:46:55.134Z,1.73
2017-12-25T12:49:22.620Z,1.67
2017-12-25T12:51:50.101Z,1.47
2017-12-25T12:54:18.380Z,1.30
2017-12-25T12:56:46.692Z,1.93
2017-12-25T12:59:14.170Z,1.13
2017-12-25T13:01:41.675Z,1.10
2017-12-25T13:04:09.898Z,1.30
2017-12-25T13:06:37.382Z,1.13
2017-12-25T13:09:05.722Z,1.57
2017-12-25T13:11:33.211Z,1.30
2017-12-25T13:14:00.743Z,1.47
2017-12-25T13:16:28.212Z,1.10
2017-12-25T13:18:56.205Z,1.10
2017-12-25T13:21:23.814Z,1.47
2017-12-25T13:23:51.290Z,1.43
2017-12-25T13:26:18.759Z,1.33
2017-12-25T13:28:51.466Z,0.90
2017-12-25T13:31:22.969Z,1.40
2017-12-25T13:33:56.894Z,1.03
2017-12-25T13:36:28.036Z,1.20
2017-12-25T13:41:54.126Z,1.30
2017-12-25T13:44:21.622Z,1.47
2017-12-25T13:46:49.182Z,1.40
2017-12-25T13:49:16.704Z,1.23
2017-12-25T13:51:49.778Z,1.50
2017-12-25T13:54:19.975Z,1.40
2017-12-25T13:56:50.214Z,3.10
2017-12-25T13:59:18.194Z,2.17
2017-12-25T14:01:45.669Z,2.33
2017-12-25T14:04:13.411Z,1.70
2017-12-25T14:06:40.961Z,3.10
2017-12-25T14:09:08.430Z,1.30
2017-12-25T14:11:35.925Z,1.23
2017-12-25T14:14:03.387Z,1.47
2017-12-25T14:16:31.626Z,1.57
2017-12-25T14:18:59.104Z,1.50
2017-12-25T14:21:26.624Z,1.20
2017-12-25T14:23:54.097Z,1.43
2017-12-25T14:26:21.570Z,1.40
2017-12-25T14:28:49.057Z,4.40
2017-12-25T14:31:17.315Z,1.30
2017-12-25T14:33:46.743Z,1.40
2017-12-25T14:36:17.352Z,1.50
2017-12-25T14:38:44.874Z,1.70
2017-12-25T14:41:12.348Z,1.90
2017-12-25T14:43:39.866Z,1.70
2017-12-25T14:46:07.295Z,2.17
2017-12-25T14:48:35.545Z,1.27
2017-12-25T14:51:05.386Z,1.83
2017-12-25T14:53:32.854Z,1.13
2017-12-25T14:56:01.164Z,1.10
2017-12-25T14:58:28.693Z,1.00
2017-12-25T15:00:56.927Z,1.10
2017-12-25T15:03:29.698Z,2.07
2017-12-25T15:05:57.171Z,1.43
2017-12-25T15:08:24.628Z,1.20
2017-12-25T15:10:52.169Z,1.30
2017-12-25T15:13:19.640Z,1.70
2017-12-25T15:15:47.232Z,1.23
2017-12-25T15:18:14.825Z,1.40
2017-12-25T15:20:42.712Z,2.87
2017-12-25T15:23:10.175Z,1.37
2017-12-25T15:25:37.674Z,1.50
2017-12-25T15:28:05.167Z,4.50
2017-12-25T15:30:33.406Z,1.40
2017-12-25T15:33:00.958Z,1.20
2017-12-25T15:35:28.462Z,1.23
2017-12-25T15:37:57.118Z,1.20
2017-12-25T15:40:24.615Z,2.00
2017-12-25T15:42:52.850Z,2.27
2017-12-25T15:45:20.328Z,1.97
2017-12-25T15:47:48.562Z,4.70
2017-12-25T15:50:16.059Z,4.03
2017-12-25T15:52:43.557Z,5.43
2017-12-25T15:55:11.956Z,17.83
2017-12-25T15:57:39.432Z,2.30
2017-12-25T16:00:07.002Z,16.43
2017-12-25T16:02:34.502Z,4.60
2017-12-25T16:05:02.739Z,4.37
2017-12-25T16:07:30.214Z,5.70
2017-12-25T16:09:58.467Z,1.53
2017-12-25T16:12:25.947Z,1.57
2017-12-25T16:14:53.571Z,1.73
2017-12-25T16:17:21.031Z,1.60
2017-12-25T16:19:48.548Z,1.40
2017-12-25T16:22:16.212Z,1.50
2017-12-25T16:24:43.734Z,1.83
2017-12-25T16:27:11.241Z,1.77
2017-12-25T16:29:38.733Z,1.77
2017-12-25T16:32:06.231Z,1.30
2017-12-25T16:34:33.779Z,1.17
2017-12-25T16:37:02.772Z,1.40
2017-12-25T16:39:30.248Z,1.40
2017-12-25T16:41:58.509Z,1.50
2017-12-25T16:44:25.967Z,1.40
2017-12-25T16:46:54.251Z,1.77
2017-12-25T16:49:22.499Z,1.67
2017-12-25T16:51:50.001Z,1.87
2017-12-25T16:54:18.270Z,1.90
2017-12-25T16:56:46.527Z,1.57
2017-12-25T16:59:13.995Z,2.70
2017-12-25T17:01:42.277Z,1.50
2017-12-25T17:04:10.547Z,1.57
2017-12-25T17:06:38.133Z,1.43
2017-12-25T17:09:05.596Z,6.00
2017-12-25T17:11:33.062Z,3.30
2017-12-25T17:14:00.536Z,3.00
2017-12-25T17:16:28.015Z,2.00
2017-12-25T17:18:55.496Z,3.67
2017-12-25T17:21:22.981Z,1.50
2017-12-25T17:23:51.267Z,2.30
2017-12-25T17:26:18.736Z,1.67
2017-12-25T17:28:46.214Z,3.43
2017-12-25T17:31:13.685Z,2.93
2017-12-25T17:33:41.361Z,2.00
2017-12-25T17:36:08.826Z,1.60
2017-12-25T17:38:36.296Z,2.80
2017-12-25T17:41:04.539Z,1.60
2017-12-25T17:43:32.042Z,2.10
2017-12-25T17:46:00.290Z,1.73
2017-12-25T17:48:28.027Z,2.50
2017-12-25T17:50:55.518Z,2.60
2017-12-25T17:53:23.583Z,2.17
2017-12-25T17:55:51.137Z,1.37
2017-12-25T17:58:18.612Z,1.77
2017-12-25T18:00:46.079Z,1.90
2017-12-25T18:03:13.542Z,2.60
2017-12-25T18:05:41.910Z,2.00
2017-12-25T18:08:09.748Z,1.83
2017-12-25T18:10:37.257Z,3.63
2017-12-25T18:13:05.706Z,1.60
2017-12-25T18:15:34.086Z,2.80
2017-12-25T18:18:02.221Z,2.53
2017-12-25T18:20:29.693Z,2.33
2017-12-25T18:22:57.188Z,3.00
2017-12-25T18:25:25.527Z,5.07
2017-12-25T18:27:53.798Z,3.10
2017-12-25T18:30:21.291Z,4.40
2017-12-25T18:32:48.750Z,3.50
2017-12-25T18:35:16.267Z,2.47
2017-12-25T18:37:43.765Z,2.60
2017-12-25T18:40:11.253Z,2.67
2017-12-25T18:42:39.508Z,2.73
2017-12-25T18:45:07.045Z,3.00
2017-12-25T18:47:34.529Z,2.07
2017-12-25T18:50:02.018Z,2.93
2017-12-25T18:52:29.510Z,2.30
2017-12-25T18:54:56.986Z,2.20
2017-12-25T18:57:24.492Z,2.50
2017-12-25T18:59:52.778Z,2.37
2017-12-25T19:02:20.331Z,2.27
2017-12-25T19:04:48.561Z,3.33
2017-12-25T19:07:16.027Z,3.07
2017-12-25T19:09:43.534Z,2.77
2017-12-25T19:12:11.003Z,5.83
2017-12-25T19:14:38.498Z,2.60
2017-12-25T19:17:05.985Z,3.20
2017-12-25T19:19:42.980Z,2.57
2017-12-25T19:22:10.634Z,5.13
2017-12-25T19:24:38.858Z,3.47
2017-12-25T19:27:06.444Z,8.43
2017-12-25T19:29:34.169Z,7.60
2017-12-25T19:32:01.722Z,2.40
2017-12-25T19:34:29.203Z,5.30
2017-12-25T19:36:56.678Z,3.73
2017-12-25T19:39:24.159Z,2.40
2017-12-25T19:41:51.688Z,2.70
2017-12-25T19:44:19.156Z,2.53
2017-12-25T19:46:46.614Z,3.10
2017-12-25T19:49:14.307Z,2.90
2017-12-25T19:51:41.778Z,3.00
2017-12-25T19:54:10.027Z,3.10
2017-12-25T19:56:37.504Z,3.00
2017-12-25T19:59:05.771Z,3.97
2017-12-25T20:01:33.397Z,3.07
2017-12-25T20:04:00.892Z,3.00
2017-12-25T20:06:28.929Z,3.37
2017-12-25T20:08:56.417Z,3.47
2017-12-25T20:11:23.983Z,2.23
2017-12-25T20:13:51.532Z,2.50
2017-12-25T20:16:19.127Z,2.40
2017-12-25T20:18:46.636Z,2.70
2017-12-25T20:21:14.579Z,3.40
2017-12-25T20:23:42.237Z,3.10
2017-12-25T20:26:09.766Z,2.70
2017-12-25T20:28:38.019Z,2.20
2017-12-25T20:31:06.376Z,2.43
2017-12-25T20:33:33.860Z,2.13
2017-12-25T20:36:01.428Z,2.13
2017-12-25T20:38:28.905Z,2.60
2017-12-25T20:40:56.376Z,2.30
2017-12-25T20:43:23.964Z,1.73
2017-12-25T20:45:52.947Z,2.47
2017-12-25T20:48:20.472Z,2.40
2017-12-25T20:50:48.696Z,2.87
2017-12-25T20:53:16.196Z,5.10
2017-12-25T20:55:43.695Z,3.10
2017-12-25T20:58:11.186Z,3.03
2017-12-25T21:00:38.675Z,3.00
2017-12-25T21:03:06.925Z,2.60
2017-12-25T21:05:34.458Z,2.60
2017-12-25T21:08:01.941Z,2.50
2017-12-25T21:10:30.225Z,2.83
2017-12-25T21:12:57.755Z,2.27
2017-12-25T21:15:25.225Z,2.27
2017-12-25T21:17:52.724Z,2.57
2017-12-25T21:20:20.214Z,2.20
2017-12-25T21:22:47.685Z,3.20
2017-12-25T21:25:15.162Z,3.07
2017-12-25T21:27:42.712Z,3.27
2017-12-25T21:30:10.236Z,3.20
2017-12-25T21:32:37.796Z,4.03
2017-12-25T21:35:05.326Z,3.20
2017-12-25T21:37:33.596Z,3.33
2017-12-25T21:40:01.092Z,3.43
2017-12-25T21:42:29.351Z,3.03
2017-12-25T21:44:56.846Z,3.07
2017-12-25T21:47:24.314Z,3.27
2017-12-25T21:49:51.791Z,2.90
2017-12-25T21:52:19.271Z,4.10
2017-12-25T21:54:46.777Z,3.33
2017-12-25T21:57:14.284Z,3.43
2017-12-25T21:59:42.015Z,2.70
2017-12-25T22:02:09.522Z,3.10
2017-12-25T22:04:37.806Z,6.43
2017-12-25T22:07:05.279Z,10.10
2017-12-25T22:09:33.529Z,6.00
2017-12-25T22:12:01.011Z,6.60
2017-12-25T22:14:29.258Z,7.70
2017-12-25T22:16:56.747Z,6.97
2017-12-25T22:19:24.229Z,3.87
2017-12-25T22:21:51.734Z,4.60
2017-12-25T22:24:19.214Z,4.30
2017-12-25T22:26:46.724Z,5.27
2017-12-25T22:29:14.204Z,4.80
2017-12-25T22:31:41.674Z,4.30
2017-12-25T22:34:09.187Z,5.17
2017-12-25T22:36:36.669Z,4.70
2017-12-25T22:39:04.165Z,4.37
2017-12-25T22:41:32.423Z,6.73
2017-12-25T22:43:59.926Z,5.60
2017-12-25T22:46:27.469Z,6.97
2017-12-25T22:48:54.960Z,6.03
2017-12-25T22:51:22.437Z,7.37
2017-12-25T22:53:49.901Z,5.60
2017-12-25T22:56:17.394Z,5.67
2017-12-25T22:58:45.636Z,5.07
2017-12-25T23:01:13.153Z,5.83
2017-12-25T23:03:40.717Z,7.27
2017-12-25T23:06:08.216Z,6.40
2017-12-25T23:08:35.699Z,4.97
2017-12-25T23:11:03.208Z,6.43
2017-12-25T23:13:30.663Z,5.33
2017-12-25T23:15:58.344Z,5.93
2017-12-25T23:18:25.831Z,10.20
2017-12-25T23:20:53.686Z,9.43
2017-12-25T23:23:21.174Z,8.67
2017-12-25T23:25:49.546Z,8.73
2017-12-25T23:28:17.026Z,7.07
2017-12-25T23:30:44.503Z,9.23
2017-12-25T23:33:12.004Z,9.90
2017-12-25T23:35:39.668Z,11.10
2017-12-25T23:38:07.140Z,16.33
2017-12-25T23:40:34.642Z,11.50
2017-12-25T23:43:02.330Z,16.80
2017-12-25T23:45:30.031Z,32.30
2017-12-25T23:47:58.282Z,13.90
2017-12-25T23:50:25.768Z,15.10
2017-12-25T23:52:54.030Z,17.77
2017-12-25T23:55:21.546Z,10.53
2017-12-25T23:57:49.032Z,14.33
